createdAt,value
2023-04-11T00:04:46.754Z,2.67
2023-04-11T00:09:51.460Z,3.08
2023-04-11T00:14:55.611Z,2.58
2023-04-11T00:20:01.829Z,3.20
2023-04-11T00:25:07.168Z,2.92
2023-04-11T00:30:10.990Z,3.20
2023-04-11T00:35:14.141Z,2.30
2023-04-11T00:40:18.902Z,2.80
2023-04-11T00:45:22.097Z,2.97
2023-04-11T00:50:25.425Z,2.38
2023-04-11T00:55:30.983Z,2.92
2023-04-11T01:00:35.589Z,2.85
2023-04-11T01:05:39.290Z,3.13
2023-04-11T01:10:44.339Z,2.80
2023-04-11T01:15:47.468Z,2.80
2023-04-11T01:20:51.273Z,2.67
2023-04-11T01:25:55.978Z,2.67
2023-04-11T01:30:59.131Z,2.47
2023-04-11T01:36:02.325Z,2.60
2023-04-11T01:41:09.535Z,2.90
2023-04-11T01:46:13.061Z,2.85
2023-04-11T01:51:16.186Z,3.15
2023-04-11T01:56:20.693Z,3.10
2023-04-11T02:01:24.080Z,3.58
2023-04-11T02:06:27.838Z,3.05
2023-04-11T02:11:32.417Z,2.97
2023-04-11T02:16:37.721Z,3.30
2023-04-11T02:21:40.883Z,2.95
2023-04-11T02:26:45.506Z,3.30
2023-04-11T02:31:50.049Z,3.00
2023-04-11T02:36:53.380Z,3.47
2023-04-11T02:41:58.455Z,3.13
2023-04-11T02:47:01.628Z,3.10
2023-04-11T02:52:05.364Z,2.88
2023-04-11T02:57:09.935Z,2.70
2023-04-11T03:02:13.132Z,2.72
2023-04-11T03:07:16.362Z,3.15
2023-04-11T03:12:21.319Z,3.10
2023-04-11T03:22:27.360Z,3.10
2023-04-11T03:27:31.891Z,3.00
2023-04-11T03:32:35.059Z,3.17
2023-04-11T03:37:38.240Z,3.70
2023-04-11T03:42:42.822Z,3.55
2023-04-11T03:47:46.000Z,3.42
2023-04-11T03:52:49.277Z,3.55
2023-04-11T03:57:53.829Z,4.18
2023-04-11T04:02:57.189Z,4.70
2023-04-11T04:08:00.534Z,3.75
2023-04-11T04:13:05.122Z,4.30
2023-04-11T04:18:08.297Z,12.43
2023-04-11T04:23:14.094Z,4.28
2023-04-11T04:28:22.597Z,4.50
2023-04-11T04:33:27.549Z,6.55
2023-04-11T04:38:31.011Z,6.55
2023-04-11T04:43:36.113Z,3.15
2023-04-11T04:48:39.203Z,2.42
2023-04-11T04:53:42.804Z,4.53
2023-04-11T04:58:47.533Z,5.80
2023-04-11T05:03:59.598Z,5.05
2023-04-11T05:09:06.272Z,4.53
2023-04-11T05:14:11.176Z,5.50
2023-04-11T05:24:17.503Z,4.70
2023-04-11T05:29:22.351Z,4.57
2023-04-11T05:34:25.632Z,5.15
2023-04-11T05:39:28.933Z,5.25
2023-04-11T05:44:33.577Z,6.05
2023-04-11T05:49:36.818Z,6.10
2023-04-11T05:54:39.994Z,6.30
2023-04-11T05:59:44.653Z,6.28
2023-04-11T06:04:47.955Z,6.63
2023-04-11T06:09:51.668Z,6.53
2023-04-11T06:14:56.295Z,6.15
2023-04-11T06:19:59.753Z,7.07
2023-04-11T06:25:03.100Z,6.18
2023-04-11T06:30:10.464Z,6.78
2023-04-11T06:35:13.935Z,6.80
2023-04-11T06:40:17.505Z,7.53
2023-04-11T06:45:22.182Z,6.68
2023-04-11T06:50:25.465Z,7.43
2023-04-11T06:55:28.655Z,6.97
2023-04-11T07:00:33.335Z,6.53
2023-04-11T07:05:39.037Z,5.90
2023-04-11T07:10:42.842Z,5.70
2023-04-11T07:15:47.543Z,4.78
2023-04-11T07:20:52.746Z,5.25
2023-04-11T07:25:56.008Z,5.22
2023-04-11T07:31:01.003Z,5.13
2023-04-11T07:36:04.880Z,5.57
2023-04-11T07:41:09.699Z,5.32
2023-04-11T07:46:15.347Z,5.82
2023-04-11T07:51:19.040Z,5.35
2023-04-11T07:56:22.391Z,5.07
2023-04-11T08:01:27.608Z,4.75
2023-04-11T08:06:31.735Z,5.03
2023-04-11T08:11:35.299Z,6.07
2023-04-11T08:16:40.012Z,6.90
2023-04-11T08:21:43.354Z,7.03
2023-04-11T08:26:46.744Z,4.40
2023-04-11T08:31:51.418Z,4.68
2023-04-11T08:36:54.630Z,5.88
2023-04-11T08:41:57.890Z,5.13
2023-04-11T08:47:02.527Z,5.65
2023-04-11T08:52:06.008Z,4.68
2023-04-11T08:57:09.232Z,4.57
2023-04-11T09:02:13.988Z,6.88
2023-04-11T09:12:29.600Z,8.48
2023-04-11T09:17:42.509Z,10.90
2023-04-11T09:22:46.108Z,10.63
2023-04-11T09:27:49.744Z,8.02
2023-04-11T09:32:55.682Z,6.93
2023-04-11T09:38:00.808Z,6.78
2023-04-11T09:43:05.382Z,6.45
2023-04-11T09:48:10.132Z,7.25
2023-04-11T09:53:13.731Z,6.15
2023-04-11T09:58:17.788Z,5.35
2023-04-11T10:03:24.032Z,5.07
2023-04-11T10:08:32.821Z,4.13
2023-04-11T10:13:43.015Z,3.50
2023-04-11T10:19:21.960Z,3.00
2023-04-11T10:24:26.872Z,2.28
2023-04-11T10:29:51.395Z,1.40
2023-04-11T10:35:31.218Z,1.13
2023-04-11T10:40:36.126Z,1.02
2023-04-11T10:45:40.486Z,1.17
2023-04-11T10:50:45.414Z,1.27
2023-04-11T10:55:51.484Z,0.95
2023-04-11T11:01:26.321Z,1.25
2023-04-11T11:06:47.249Z,1.48
2023-04-11T11:12:08.805Z,1.27
2023-04-11T11:17:13.907Z,1.15
2023-04-11T11:22:17.688Z,1.40
2023-04-11T11:27:23.005Z,1.40
2023-04-11T11:32:29.063Z,1.70
2023-04-11T11:37:32.555Z,1.90
2023-04-11T11:42:37.783Z,2.13
2023-04-11T11:47:44.520Z,1.85
2023-04-11T11:52:49.003Z,1.90
2023-04-11T11:57:53.654Z,2.35
2023-04-11T12:02:59.874Z,2.45
2023-04-11T12:08:04.938Z,2.30
2023-04-11T12:13:18.056Z,2.30
2023-04-11T12:18:25.246Z,2.35
2023-04-11T12:23:28.364Z,2.28
2023-04-11T12:28:32.889Z,2.27
2023-04-11T12:33:36.252Z,2.30
2023-04-11T12:38:39.465Z,2.13
2023-04-11T12:43:44.000Z,2.97
2023-04-11T12:48:47.136Z,2.65
2023-04-11T12:53:52.889Z,2.22
2023-04-11T12:59:08.514Z,3.33
2023-04-11T13:04:15.839Z,2.22
2023-04-11T13:09:21.962Z,2.45
2023-04-11T13:14:32.949Z,2.22
2023-04-11T13:19:40.513Z,2.40
2023-04-11T13:24:43.673Z,2.13
2023-04-11T13:29:55.364Z,1.97
2023-04-11T13:35:03.395Z,2.08
2023-04-11T13:40:14.482Z,2.30
2023-04-11T13:45:21.783Z,1.85
2023-04-11T13:50:28.045Z,1.80
2023-04-11T13:55:32.332Z,1.90
2023-04-11T14:00:37.122Z,2.00
2023-04-11T14:05:40.543Z,1.80
2023-04-11T14:10:44.303Z,1.90
2023-04-11T14:15:54.779Z,1.80
2023-04-11T14:21:08.960Z,1.60
2023-04-11T14:26:12.267Z,1.88
2023-04-11T14:31:17.049Z,1.60
2023-04-11T14:36:20.442Z,1.63
2023-04-11T14:41:23.768Z,1.77
2023-04-11T14:46:28.651Z,1.63
2023-04-11T14:51:31.937Z,2.20
2023-04-11T14:56:35.223Z,1.87
2023-04-11T15:01:40.533Z,1.60
2023-04-11T15:06:43.932Z,2.10
2023-04-11T15:11:47.454Z,1.70
2023-04-11T15:16:52.107Z,2.07
2023-04-11T15:21:55.249Z,1.80
2023-04-11T15:26:58.414Z,2.03
2023-04-11T15:32:04.547Z,2.13
2023-04-11T15:37:11.525Z,1.83
2023-04-11T15:42:14.661Z,2.08
2023-04-11T15:47:19.285Z,1.60
2023-04-11T15:52:22.512Z,2.47
2023-04-11T15:57:27.516Z,1.98
2023-04-11T16:02:32.233Z,1.80
2023-04-11T16:07:35.524Z,2.10
2023-04-11T16:12:38.660Z,2.10
2023-04-11T16:17:43.184Z,2.10
2023-04-11T16:22:47.466Z,2.40
2023-04-11T16:27:51.708Z,2.70
2023-04-11T16:32:56.576Z,2.17
2023-04-11T16:37:59.768Z,2.10
2023-04-11T16:43:02.906Z,2.72
2023-04-11T16:48:09.515Z,1.75
2023-04-11T16:53:12.648Z,2.00
2023-04-11T16:58:15.774Z,1.95
2023-04-11T17:03:21.864Z,3.13
2023-04-11T17:08:26.600Z,2.15
2023-04-11T17:18:34.177Z,2.42
2023-04-11T17:29:00.118Z,2.08
2023-04-11T17:34:04.651Z,1.83
2023-04-11T17:44:11.076Z,1.83
2023-04-11T17:49:16.381Z,2.33
2023-04-11T17:54:19.543Z,2.28
2023-04-11T17:59:24.160Z,2.15
2023-04-11T18:09:32.394Z,1.90
2023-04-11T18:14:35.573Z,2.17
2023-04-11T18:19:40.065Z,2.45
2023-04-11T18:24:43.206Z,2.70
2023-04-11T18:29:47.127Z,2.30
2023-04-11T18:34:52.150Z,2.00
2023-04-11T18:39:55.625Z,2.22
2023-04-11T18:45:00.186Z,2.50
2023-04-11T18:50:05.701Z,2.60
2023-04-11T18:55:10.151Z,2.47
2023-04-11T19:00:18.551Z,3.25
2023-04-11T19:05:25.417Z,2.67
2023-04-11T19:10:28.898Z,2.42
2023-04-11T19:15:32.046Z,3.00
2023-04-11T19:20:38.809Z,2.90
2023-04-11T19:25:42.931Z,2.25
2023-04-11T19:30:46.043Z,2.50
2023-04-11T19:35:50.616Z,2.55
2023-04-11T19:40:53.828Z,2.88
2023-04-11T19:45:57.041Z,3.10
2023-04-11T19:51:02.870Z,2.60
2023-04-11T19:56:08.013Z,2.67
2023-04-11T20:01:11.178Z,2.72
2023-04-11T20:06:15.800Z,3.13
2023-04-11T20:11:20.413Z,3.30
2023-04-11T20:16:25.299Z,2.92
2023-04-11T20:21:29.907Z,2.83
2023-04-11T20:26:33.093Z,2.75
2023-04-11T20:31:36.405Z,2.92
2023-04-11T20:36:40.951Z,2.88
2023-04-11T20:41:44.070Z,3.63
2023-04-11T20:46:48.112Z,6.28
2023-04-11T20:51:53.774Z,4.70
2023-04-11T20:56:57.020Z,4.40
2023-04-11T21:02:00.401Z,4.43
2023-04-11T21:07:05.003Z,4.75
2023-04-11T21:12:08.359Z,5.60
2023-04-11T21:17:11.490Z,4.53
2023-04-11T21:22:16.063Z,5.00
2023-04-11T21:27:19.155Z,2.70
2023-04-11T21:32:22.296Z,4.45
2023-04-11T21:37:26.909Z,4.20
2023-04-11T21:42:30.111Z,3.50
2023-04-11T21:47:33.284Z,4.20
2023-04-11T21:52:37.837Z,3.17
2023-04-11T21:57:41.060Z,3.70
2023-04-11T22:02:44.441Z,3.22
2023-04-11T22:07:51.517Z,3.42
2023-04-11T22:12:54.842Z,3.08
2023-04-11T22:17:58.042Z,3.40
2023-04-11T22:23:02.589Z,3.67
2023-04-11T22:28:05.981Z,3.35
2023-04-11T22:33:09.180Z,3.65
2023-04-11T22:38:14.173Z,3.28
2023-04-11T22:43:17.654Z,3.03
2023-04-11T22:48:20.836Z,3.70
2023-04-11T22:53:25.446Z,3.53
2023-04-11T22:58:28.688Z,3.60
2023-04-11T23:03:31.873Z,3.38
2023-04-11T23:08:36.494Z,3.38
2023-04-11T23:13:39.609Z,3.38
2023-04-11T23:18:42.728Z,3.25
2023-04-11T23:23:47.234Z,3.40
2023-04-11T23:28:50.676Z,3.35
2023-04-11T23:33:54.021Z,2.72
2023-04-11T23:38:58.562Z,2.90
2023-04-11T23:44:01.667Z,3.80
2023-04-11T23:49:05.060Z,2.97
2023-04-11T23:54:09.593Z,3.72
2023-04-11T23:59:12.742Z,3.53
